Time;durP1;ratioP1;P1;durP2;ratioP2;P2;SDS_P1;SDS_P2;PMS_P1;PMS_P2;Temp;Humidity;BMP_temperature;BMP_pressure;BME280_temperature;BME280_humidity;BME280_pressure;Samples;Min_cycle;Max_cycle;Signal;HPM_P1;HPM_P2
2021/01/12 00:21:33;;;;;;;22.87;15.03;;;;;;;1.10;57.24;100948.34;1902985;74;22899;-93
2021/01/12 01:02:30;;;;;;;22.23;15.63;;;;;;;1.23;57.23;100939.58;1668986;81;21097;-90
2021/01/12 01:12:33;;;;;;;;;;;;;;;;;;;;;
2021/01/12 01:15:59;;;;;;;21.13;15.33;;;;;;;1.34;56.41;100924.69;1858024;75;22819;-96
2021/01/12 01:22:30;;;;;;;21.07;14.53;;;;;;;1.38;56.53;100929.72;1710003;81;21247;-93
2021/01/12 01:25:10;;;;;;;21.03;15.23;;;;;;;1.34;56.32;100933.05;1718635;81;21359;-92
2021/01/12 01:27:47;;;;;;;24.05;16.40;;;;;;;1.31;56.63;100941.98;1719946;83;21202;-94
2021/01/12 01:30:59;;;;;;;31.57;21.53;;;;;;;1.23;57.18;100937.78;1708876;82;21214;-96
2021/01/12 01:34:27;;;;;;;28.87;19.23;;;;;;;1.13;57.58;100938.08;1708812;83;21391;-95
2021/01/12 01:45:02;;;;;;;34.93;23.00;;;;;;;0.95;58.93;100933.22;1562100;89;21330;-96
2021/01/12 01:48:36;;;;;;;;;;;;;;;0.92;59.37;100926.91;1507237;95;21178;-96
2021/01/12 01:51:55;;;;;;;35.20;22.43;;;;;;;0.89;59.74;100928.42;1596469;88;20213;-96
2021/01/12 01:55:26;;;;;;;42.80;24.73;;;;;;;0.80;60.14;100935.66;1610655;88;21232;-96
2021/01/12 01:58:26;;;;;;;38.23;24.57;;;;;;;0.77;60.23;100939.80;1629044;84;21129;-96
2021/01/12 02:02:19;;;;;;;40.67;23.57;;;;;;;0.69;60.52;100926.40;1631876;88;21332;-95
2021/01/12 02:05:52;;;;;;;33.07;22.03;;;;;;;0.68;60.76;100924.70;1611794;89;21224;-95
2021/01/12 02:09:07;;;;;;;32.07;21.90;;;;;;;0.71;60.67;100926.64;1658537;83;21662;-95
2021/01/12 02:11:43;;;;;;;32.80;20.90;;;;;;;0.71;60.56;100925.33;1724805;81;21153;-95
2021/01/12 02:14:28;;;;;;;41.27;25.20;;;;;;;0.69;60.59;100915.91;1725733;80;21757;-94
2021/01/12 02:16:58;;;;;;;35.53;23.00;;;;;;;0.73;60.71;100917.35;1741348;81;21726;-93
2021/01/12 02:55:52;;;;;;;31.80;21.00;;;;;;;0.70;59.85;100891.36;1707706;82;21367;-96
2021/01/12 03:05:39;;;;;;;28.80;18.70;;;;;;;0.65;59.82;100887.73;1684006;82;21720;-94
2021/01/12 03:09:13;;;;;;;28.50;18.57;;;;;;;0.65;59.60;100875.09;1671999;85;21327;-96
2021/01/12 03:12:11;;;;;;;24.20;18.20;;;;;;;0.68;59.15;100874.86;1643403;85;21189;-94
2021/01/12 03:14:42;;;;;;;26.30;17.03;;;;;;;0.74;58.64;100875.27;1673477;81;21160;-94
2021/01/12 03:17:22;;;;;;;27.27;18.00;;;;;;;0.72;58.59;100873.23;1649557;85;21144;-94
2021/01/12 03:19:54;;;;;;;21.73;14.87;;;;;;;0.73;58.52;100864.39;1632655;87;21215;-94
2021/01/12 03:22:29;;;;;;;24.10;16.17;;;;;;;0.74;58.61;100863.94;1621537;85;21199;-92
2021/01/12 03:25:11;;;;;;;23.40;16.27;;;;;;;0.81;57.62;100870.42;1628996;84;21134;-92
2021/01/12 03:27:39;;;;;;;20.47;14.40;;;;;;;0.77;57.25;100874.19;1652358;81;21174;-94
2021/01/12 03:33:25;;;;;;;19.73;13.73;;;;;;;0.07;57.03;100731.97;1754520;79;23045;-94
2021/01/12 03:36:00;;;;;;;23.63;15.97;;;;;;;0.75;56.81;100855.09;1702798;81;21258;-94
2021/01/12 03:38:30;;;;;;;21.73;14.83;;;;;;;0.77;57.15;100851.44;1643242;85;21377;-94
2021/01/12 03:41:00;;;;;;;25.50;14.80;;;;;;;0.78;57.08;100850.47;1681471;83;21235;-94
2021/01/12 03:43:30;;;;;;;22.20;15.07;;;;;;;0.81;56.65;100848.56;1669035;84;21227;-94
2021/01/12 03:46:00;;;;;;;22.40;15.23;;;;;;;0.74;56.73;100845.09;1664466;84;21245;-92
2021/01/12 03:48:32;;;;;;;21.77;14.73;;;;;;;0.72;56.36;100839.59;1697316;83;21229;-93
2021/01/12 03:51:27;;;;;;;;;;;;;;;;;;;;;
2021/01/12 03:54:26;;;;;;;21.43;12.93;;;;;;;0.68;56.12;100831.56;1650653;85;21617;-96
2021/01/12 04:17:01;;;;;;;17.43;11.40;;;;;;;0.68;55.70;100810.58;1597268;84;21484;-95
2021/01/12 04:20:24;;;;;;;14.23;10.80;;;;;;;0.77;55.68;100808.59;1843963;76;23598;-93
2021/01/12 04:23:29;;;;;;;20.20;13.90;;;;;;;0.76;55.40;100814.31;1736830;79;21177;-95
2021/01/12 04:59:38;;;;;;;23.93;15.23;;;;;;;0.53;58.58;100797.65;1654826;84;21232;-95
2021/01/12 05:03:21;;;;;;;;;;;;;;;;;;;;;
2021/01/12 05:06:21;;;;;;;22.80;15.57;;;;;;;0.37;61.03;100790.05;1816155;76;23614;-94
2021/01/12 05:15:57;;;;;;;24.37;17.07;;;;;;;0.25;62.29;100792.74;1649937;81;21709;31
2021/01/12 05:18:51;;;;;;;27.20;17.33;;;;;;;0.27;63.32;100792.16;1641508;85;21216;-96
2021/01/12 05:31:39;;;;;;;27.97;18.70;;;;;;;0.12;64.89;100796.22;1662577;82;21182;-92
2021/01/12 05:38:39;;;;;;;28.63;18.10;;;;;;;0.13;65.75;100793.13;1615781;82;21157;-95
2021/01/12 06:01:56;;;;;;;27.33;19.50;;;;;;;0.08;67.39;100804.44;1633311;82;21506;-95
2021/01/12 06:04:35;;;;;;;30.00;18.93;;;;;;;0.10;67.58;100809.92;1610291;87;21238;-92
2021/01/12 06:07:12;;;;;;;32.30;20.60;;;;;;;0.06;67.70;100811.09;1591685;87;21179;-93
2021/01/12 06:09:41;;;;;;;25.63;18.53;;;;;;;0.12;67.63;100810.64;1627524;86;21157;-92
2021/01/12 06:12:26;;;;;;;28.67;18.50;;;;;;;0.14;67.56;100817.92;1625325;85;21232;-93
2021/01/12 06:15:02;;;;;;;25.67;17.93;;;;;;;0.09;67.77;100820.51;1633657;85;21208;-91
2021/01/12 06:17:42;;;;;;;27.60;18.90;;;;;;;0.05;67.88;100817.27;1631502;86;21374;-92
2021/01/12 06:20:18;;;;;;;26.93;19.43;;;;;;;-1.23;67.61;100612.73;1643320;85;21343;-91
2021/01/12 06:23:34;;;;;;;26.90;18.50;;;;;;;0.04;67.83;100818.22;1629075;87;21216;-91
2021/01/12 06:26:27;;;;;;;24.20;16.40;;;;;;;0.06;67.53;100812.40;1565240;89;21544;-93
2021/01/12 06:29:07;;;;;;;;;;;;;;;-0.02;67.07;100807.70;1599795;86;21249;-94
2021/01/12 06:31:51;;;;;;;24.90;14.90;;;;;;;-0.02;67.05;100823.87;1613945;86;20275;-91
2021/01/12 06:34:23;;;;;;;22.80;14.50;;;;;;;-0.11;66.87;100814.90;1588055;88;22213;-92
2021/01/12 06:36:55;;;;;;;22.90;16.37;;;;;;;-0.08;66.71;100816.45;1597973;86;21768;-90
2021/01/12 06:43:15;;;;;;;24.90;14.37;;;;;;;-0.03;66.31;100820.42;1638723;86;21203;-92
2021/01/12 07:02:36;;;;;;;28.57;15.67;;;;;;;-0.08;65.36;100791.08;1616070;83;21211;-91
2021/01/12 07:39:41;;;;;;;21.63;12.90;;;;;;;-0.14;65.78;100789.37;1599557;83;21203;-92
2021/01/12 07:58:48;;;;;;;21.73;15.47;;;;;;;-0.09;65.34;100776.80;1635410;84;21219;-93
2021/01/12 08:02:22;;;;;;;22.33;15.13;;;;;;;-0.03;65.63;100777.19;1815464;77;24600;-90
2021/01/12 08:05:05;;;;;;;21.03;14.00;;;;;;;-0.06;65.54;100773.94;1780623;79;21283;-93
2021/01/12 08:08:31;;;;;;;22.13;14.70;;;;;;;-0.05;65.69;100769.91;1789861;79;21149;-93
2021/01/12 08:11:26;;;;;;;30.13;14.53;;;;;;;-0.05;65.82;100771.22;1787164;79;21271;-93
2021/01/12 08:14:11;;;;;;;23.13;15.30;;;;;;;-0.11;65.40;100774.77;1762295;80;21170;-91
2021/01/12 08:17:27;;;;;;;20.83;14.23;;;;;;;-0.15;65.69;100770.66;1749833;81;21208;-92
2021/01/12 08:20:27;;;;;;;21.87;13.95;;;;;;;-0.25;66.00;100770.00;1735259;78;21201;-92
2021/01/12 09:46:14;;;;;;;23.13;15.97;;;;;;;0.01;63.71;100709.66;1666109;79;21605;31
2021/01/12 10:15:03;;;;;;;19.27;12.87;;;;;;;-0.03;62.49;100636.15;1660672;82;21312;-93
2021/01/12 10:17:57;;;;;;;18.70;12.57;;;;;;;-0.09;62.44;100641.36;1723038;81;21184;-95
2021/01/12 10:21:09;;;;;;;23.30;13.60;;;;;;;-0.04;62.68;100627.45;1724591;83;21196;-94
2021/01/12 10:37:31;;;;;;;20.37;13.13;;;;;;;0.17;61.41;100606.68;1693155;79;21343;-92
2021/01/12 10:41:26;;;;;;;18.77;12.68;;;;;;;0.21;60.86;100604.67;1671258;81;21126;-96
2021/01/12 10:44:38;;;;;;;19.63;12.50;;;;;;;0.11;60.16;100590.08;1719115;79;21462;-93
2021/01/12 11:21:21;;;;;;;29.83;15.43;;;;;;;-0.21;61.16;100560.58;1737704;79;21324;-93
2021/01/12 11:24:39;;;;;;;22.40;13.97;;;;;;;-0.17;61.43;100555.95;1766214;79;21294;-94
2021/01/12 11:27:43;;;;;;;27.33;15.47;;;;;;;-0.15;61.36;100546.19;1773417;78;21257;-92
2021/01/12 11:30:52;;;;;;;22.67;14.23;;;;;;;-0.13;61.12;100558.69;1798085;78;21150;-93
2021/01/12 11:38:15;;;;;;;21.80;12.43;;;;;;;-0.14;60.71;100548.32;1780371;77;21150;-92
2021/01/12 11:45:23;;;;;;;18.53;11.57;;;;;;;-0.01;60.17;100545.97;1696144;80;21134;-93
2021/01/12 11:51:53;;;;;;;18.83;11.90;;;;;;;-0.07;60.25;100537.75;1725770;77;21235;-95
2021/01/12 12:13:55;;;;;;;;;;;;;;;;;;;;;
2021/01/12 12:29:29;;;;;;;16.60;10.30;;;;;;;-0.08;59.86;100465.31;1601939;83;21254;-94
2021/01/12 13:52:21;;;;;;;18.63;11.80;;;;;;;-0.44;60.81;100407.72;1690460;79;21515;31
2021/01/12 15:34:23;;;;;;;;;;;;;;;;;;;;;
2021/01/12 17:06:24;;;;;;;19.63;12.37;;;;;;;-0.94;63.16;100229.17;1674554;82;21097;-95
2021/01/12 17:23:33;;;;;;;45.33;15.77;;;;;;;-0.79;63.16;100224.55;1694383;80;22950;-95
2021/01/12 17:27:53;;;;;;;19.40;13.30;;;;;;;-0.80;62.99;100237.27;1790327;77;23457;31
2021/01/12 17:31:00;;;;;;;29.40;16.77;;;;;;;-0.92;63.35;100227.72;1712648;80;21297;-93
2021/01/12 17:34:08;;;;;;;22.17;15.83;;;;;;;-0.90;63.53;100227.16;1663637;83;21297;-93
2021/01/12 17:37:24;;;;;;;23.92;16.48;;;;;;;-0.86;63.66;100219.42;1686783;82;21144;-93
2021/01/12 17:40:39;;;;;;;;;;;;;;;-0.79;63.39;100225.38;1686086;82;21145;-94
2021/01/12 17:57:45;;;;;;;;;;;;;;;;;;;;;
2021/01/12 18:04:14;;;;;;;25.57;16.10;;;;;;;-0.69;63.36;100195.39;1608471;83;21195;-94
2021/01/12 18:08:23;;;;;;;25.07;15.67;;;;;;;-0.75;63.47;100189.79;1579242;88;21191;-93
2021/01/12 18:15:11;;;;;;;21.27;14.43;;;;;;;-0.74;63.35;100187.55;1743898;79;21184;-92
2021/01/12 18:18:20;;;;;;;20.87;14.90;;;;;;;-0.80;63.10;100192.30;1761446;79;21124;-91
2021/01/12 18:21:32;;;;;;;20.07;12.77;;;;;;;-1.74;63.14;100032.58;1727802;80;22652;-92
2021/01/12 18:24:20;;;;;;;17.73;11.53;;;;;;;-0.78;63.07;100205.27;1741001;81;21173;-91
2021/01/12 18:27:17;;;;;;;21.90;12.33;;;;;;;-0.80;63.04;100183.62;1680083;83;21154;-93
2021/01/12 18:30:09;;;;;;;21.40;13.17;;;;;;;-0.81;62.93;100186.72;1691055;82;21123;-93
2021/01/12 18:38:57;;;;;;;17.73;10.47;;;;;;;-0.68;62.64;100190.53;1759600;78;21084;-92
2021/01/12 18:42:01;;;;;;;18.53;10.47;;;;;;;-0.71;62.19;100193.86;1745718;80;21271;-93
2021/01/12 18:45:01;;;;;;;14.83;9.90;;;;;;;-0.71;62.07;100205.16;1770333;79;21109;-93
2021/01/12 18:48:13;;;;;;;14.60;9.07;;;;;;;-0.84;62.01;100201.82;1767373;78;21673;-93
2021/01/12 18:51:43;;;;;;;14.27;10.17;;;;;;;-0.90;62.23;100161.26;1751255;81;21088;-90
2021/01/12 19:04:56;;;;;;;13.93;8.70;;;;;;;-0.89;62.52;100151.12;1707458;78;21122;-95
2021/01/12 19:08:10;;;;;;;13.33;9.17;;;;;;;-0.87;62.48;100147.91;1704090;78;21226;31
2021/01/12 19:11:22;;;;;;;14.40;8.70;;;;;;;-0.87;62.47;100140.55;1689010;81;21192;-93
2021/01/12 19:13:52;;;;;;;20.17;9.67;;;;;;;-0.93;62.86;100155.42;1660092;83;21229;-92
2021/01/12 19:16:31;;;;;;;15.27;10.47;;;;;;;-0.83;62.80;100182.08;1656213;82;21244;-92
2021/01/12 19:19:03;;;;;;;18.33;12.63;;;;;;;-0.85;62.84;100166.13;1669202;84;22219;-92
2021/01/12 19:21:35;;;;;;;23.40;13.23;;;;;;;-0.82;63.06;100156.25;1667613;82;21722;-91
2021/01/12 19:24:10;;;;;;;18.97;11.87;;;;;;;-0.84;63.23;100148.17;1630177;85;21243;-91
2021/01/12 19:26:45;;;;;;;20.20;14.33;;;;;;;-1.61;63.37;100008.95;1701403;82;21279;-94
2021/01/12 19:30:00;;;;;;;20.27;13.60;;;;;;;-0.76;63.56;100116.98;1837347;76;21127;-88
2021/01/12 19:32:33;;;;;;;16.83;13.53;;;;;;;-0.78;63.42;100120.20;1824845;77;21190;-91
2021/01/12 19:35:29;;;;;;;17.77;11.93;;;;;;;-0.78;63.36;100112.36;1803458;77;21183;-91
2021/01/12 19:39:07;;;;;;;22.13;16.37;;;;;;;-1.49;63.39;99993.61;1815516;77;21247;-94
2021/01/12 19:42:17;;;;;;;25.00;14.47;;;;;;;-0.78;63.56;100096.66;1799198;77;21250;-94
2021/01/12 19:44:51;;;;;;;23.67;16.47;;;;;;;-0.77;63.76;100088.31;1808494;77;21127;-92
2021/01/12 19:47:31;;;;;;;25.73;14.53;;;;;;;-0.79;63.67;100089.77;1806921;77;21183;-92
2021/01/12 19:50:33;;;;;;;23.95;14.87;;;;;;;-0.84;63.72;100090.12;1775634;77;22012;-90
2021/01/12 19:54:03;;;;;;;19.80;12.53;;;;;;;-0.87;63.81;100096.89;1743538;79;21138;-94
2021/01/12 19:57:24;;;;;;;19.53;12.80;;;;;;;-1.74;63.82;99931.98;1722676;79;21094;-92
2021/01/12 20:00:58;;;;;;;23.67;11.50;;;;;;;-0.83;63.87;100077.41;1749095;81;21104;-92
2021/01/12 20:08:11;;;;;;;23.80;12.43;;;;;;;-0.85;63.92;100064.91;1637002;82;21350;-95
2021/01/12 20:31:54;;;;;;;18.43;12.17;;;;;;;-1.06;64.66;100063.48;1750607;79;21139;-91
2021/01/12 20:35:15;;;;;;;15.95;9.98;;;;;;;-1.00;64.61;100085.72;1693578;83;21216;-93
2021/01/12 20:42:36;;;;;;;21.07;12.63;;;;;;;-0.95;64.57;100084.89;1689386;83;21336;-93
2021/01/12 21:50:19;;;;;;;23.60;14.93;;;;;;;-1.14;64.04;100028.44;1615482;84;21603;31
2021/01/12 21:53:49;;;;;;;19.80;13.93;;;;;;;-1.13;64.25;100007.41;1575342;87;21300;-96
2021/01/12 21:56:32;;;;;;;22.67;14.97;;;;;;;-1.16;64.19;100001.09;1588817;89;21179;-95
2021/01/12 21:59:13;;;;;;;20.10;13.97;;;;;;;-1.16;64.03;100002.41;1592635;88;21265;-95
2021/01/12 22:02:10;;;;;;;23.23;13.73;;;;;;;-1.14;64.02;100000.98;1572645;88;21219;-94
2021/01/12 22:05:14;;;;;;;20.87;14.83;;;;;;;-1.12;64.02;99990.73;1578182;88;21364;-95
2021/01/12 22:15:04;;;;;;;21.47;14.53;;;;;;;-1.07;63.80;99981.23;1649080;83;21290;-93
2021/01/12 22:17:55;;;;;;;23.43;14.70;;;;;;;-1.18;64.00;99965.08;1616205;86;21864;-92
2021/01/12 22:21:12;;;;;;;21.93;14.87;;;;;;;-1.15;64.04;99953.53;1622840;87;21166;-93
2021/01/12 22:24:14;;;;;;;19.80;12.73;;;;;;;-1.21;64.20;99958.77;1598894;87;21540;-89
2021/01/12 22:26:42;;;;;;;20.27;13.87;;;;;;;-1.25;64.45;99951.64;1619092;87;21212;-88
2021/01/12 22:40:22;;;;;;;22.40;14.17;;;;;;;-1.32;64.61;99913.03;1772870;80;23082;-96
2021/01/12 22:42:58;;;;;;;18.10;12.40;;;;;;;-1.38;64.71;99911.25;1752405;80;21289;-90
2021/01/12 22:45:44;;;;;;;21.57;13.67;;;;;;;-1.22;64.56;99895.19;1824370;77;24255;-91
2021/01/12 22:48:20;;;;;;;21.40;15.30;;;;;;;-1.25;64.52;99897.21;1758480;81;21195;-89
2021/01/12 22:51:00;;;;;;;18.33;13.03;;;;;;;-1.20;64.12;99882.81;1774537;79;21295;-92
2021/01/12 22:54:11;;;;;;;45.77;21.20;;;;;;;-1.20;64.13;99883.30;1719157;81;21180;-94
2021/01/12 22:56:45;;;;;;;39.40;18.73;;;;;;;-1.19;64.07;99879.25;1784114;80;21393;-94
2021/01/12 23:08:49;;;;;;;26.20;15.83;;;;;;;-1.17;63.89;99885.64;1734567;81;21169;-90
2021/01/12 23:11:21;;;;;;;26.23;16.33;;;;;;;-1.19;63.82;99897.56;1731999;81;21148;-91
2021/01/12 23:13:59;;;;;;;22.40;14.63;;;;;;;-1.21;64.15;99894.70;1662239;84;21163;-90
2021/01/12 23:16:29;;;;;;;24.73;16.27;;;;;;;-1.21;64.04;99894.21;1720364;81;21352;-88
2021/01/12 23:18:57;;;;;;;27.67;16.33;;;;;;;-1.25;64.13;99884.95;1716868;81;21185;-87
2021/01/12 23:21:25;;;;;;;26.10;16.10;;;;;;;-1.21;64.09;99885.55;1714985;81;21385;-88
2021/01/12 23:23:53;;;;;;;27.27;17.63;;;;;;;-1.21;64.19;99890.77;1726737;81;21738;-87
2021/01/12 23:26:29;;;;;;;26.00;16.93;;;;;;;-2.38;63.91;99679.31;1704812;82;21343;-90
2021/01/12 23:29:01;;;;;;;28.70;16.33;;;;;;;-1.12;63.97;99882.19;1703571;82;21137;-90
2021/01/12 23:31:30;;;;;;;26.97;16.60;;;;;;;-1.19;63.94;99867.48;1697707;83;21174;-93
2021/01/12 23:33:59;;;;;;;26.03;16.37;;;;;;;-1.22;64.12;99859.05;1712444;81;21209;-91
2021/01/12 23:36:34;;;;;;;28.57;19.20;;;;;;;-1.23;64.23;99856.08;1734275;81;21203;-90
2021/01/12 23:39:05;;;;;;;30.77;18.60;;;;;;;-1.22;64.43;99847.29;1722061;81;21186;-92
2021/01/12 23:41:46;;;;;;;32.27;18.87;;;;;;;-1.19;64.46;99841.79;1700627;82;21323;-89
2021/01/12 23:44:25;;;;;;;42.07;18.73;;;;;;;-1.16;64.45;99851.19;1728745;81;21185;-89
2021/01/12 23:46:57;;;;;;;51.17;24.30;;;;;;;-1.12;64.49;99844.27;1734322;82;21146;-89
2021/01/12 23:49:28;;;;;;;52.80;26.00;;;;;;;-1.07;64.40;99836.88;1698594;83;21237;-93
